sensor_id;sensor_type;location;lat;lon;timestamp;pressure;altitude;pressure_sealevel;temperature
14666;BMP280;7420;53.574;10.040;2023-05-21T00:02:05;54227.25;;;-136.87
14666;BMP280;7420;53.574;10.040;2023-05-21T00:04:30;54229.28;;;-136.87
14666;BMP280;7420;53.574;10.040;2023-05-21T00:06:57;54227.25;;;-136.87
14666;BMP280;7420;53.574;10.040;2023-05-21T00:09:23;54229.28;;;-136.87
14666;BMP280;7420;53.574;10.040;2023-05-21T00:11:48;54229.28;;;-136.87
14666;BMP280;7420;53.574;10.040;2023-05-21T00:14:14;54229.28;;;-136.87
14666;BMP280;7420;53.574;10.040;2023-05-21T00:16:39;54227.25;;;-136.87
14666;BMP280;7420;53.574;10.040;2023-05-21T00:19:05;54227.25;;;-136.87
14666;BMP280;7420;53.574;10.040;2023-05-21T00:21:30;54229.28;;;-136.87
14666;BMP280;7420;53.574;10.040;2023-05-21T00:23:56;54229.28;;;-136.87
14666;BMP280;7420;53.574;10.040;2023-05-21T00:26:22;54227.25;;;-136.87
14666;BMP280;7420;53.574;10.040;2023-05-21T00:28:48;54227.25;;;-136.87
14666;BMP280;7420;53.574;10.040;2023-05-21T00:31:14;54231.31;;;-136.87
14666;BMP280;7420;53.574;10.040;2023-05-21T00:33:40;54229.28;;;-136.87
14666;BMP280;7420;53.574;10.040;2023-05-21T00:36:05;54229.28;;;-136.87
14666;BMP280;7420;53.574;10.040;2023-05-21T00:38:31;54229.28;;;-136.87
14666;BMP280;7420;53.574;10.040;2023-05-21T00:41:00;54229.28;;;-136.87
14666;BMP280;7420;53.574;10.040;2023-05-21T00:43:26;54231.31;;;-136.87
14666;BMP280;7420;53.574;10.040;2023-05-21T00:45:51;54231.31;;;-136.87
14666;BMP280;7420;53.574;10.040;2023-05-21T00:48:18;54229.28;;;-136.87
14666;BMP280;7420;53.574;10.040;2023-05-21T00:50:44;54229.28;;;-136.87
14666;BMP280;7420;53.574;10.040;2023-05-21T00:53:10;54225.19;;;-136.87
14666;BMP280;7420;53.574;10.040;2023-05-21T00:55:36;54225.19;;;-136.87
14666;BMP280;7420;53.574;10.040;2023-05-21T00:58:02;54227.25;;;-136.87
14666;BMP280;7420;53.574;10.040;2023-05-21T01:00:33;54229.28;;;-136.87
14666;BMP280;7420;53.574;10.040;2023-05-21T01:02:59;54227.25;;;-136.87
14666;BMP280;7420;53.574;10.040;2023-05-21T01:05:26;54227.25;;;-136.87
14666;BMP280;7420;53.574;10.040;2023-05-21T01:07:52;54227.25;;;-136.87
14666;BMP280;7420;53.574;10.040;2023-05-21T01:10:18;54229.28;;;-136.87
14666;BMP280;7420;53.574;10.040;2023-05-21T01:12:44;54227.25;;;-136.87
14666;BMP280;7420;53.574;10.040;2023-05-21T01:15:10;54225.19;;;-136.87
14666;BMP280;7420;53.574;10.040;2023-05-21T01:17:36;54229.28;;;-136.87
14666;BMP280;7420;53.574;10.040;2023-05-21T01:20:04;54229.28;;;-136.87
14666;BMP280;7420;53.574;10.040;2023-05-21T01:22:34;54227.25;;;-136.87
14666;BMP280;7420;53.574;10.040;2023-05-21T01:25:00;54227.25;;;-136.87
14666;BMP280;7420;53.574;10.040;2023-05-21T01:27:27;54229.28;;;-136.87
14666;BMP280;7420;53.574;10.040;2023-05-21T01:29:52;54227.25;;;-136.87
14666;BMP280;7420;53.574;10.040;2023-05-21T01:32:36;54229.28;;;-136.87
14666;BMP280;7420;53.574;10.040;2023-05-21T01:35:09;54227.25;;;-136.87
14666;BMP280;7420;53.574;10.040;2023-05-21T01:37:45;54229.28;;;-136.87
14666;BMP280;7420;53.574;10.040;2023-05-21T01:40:19;54229.28;;;-136.87
14666;BMP280;7420;53.574;10.040;2023-05-21T01:42:47;54229.28;;;-136.87
14666;BMP280;7420;53.574;10.040;2023-05-21T01:45:16;54229.28;;;-136.87
14666;BMP280;7420;53.574;10.040;2023-05-21T01:47:46;54227.25;;;-136.87
14666;BMP280;7420;53.574;10.040;2023-05-21T01:50:13;54229.28;;;-136.87
14666;BMP280;7420;53.574;10.040;2023-05-21T01:52:38;54227.25;;;-136.87
14666;BMP280;7420;53.574;10.040;2023-05-21T01:55:04;54229.28;;;-136.87
14666;BMP280;7420;53.574;10.040;2023-05-21T01:57:30;54229.28;;;-136.87
14666;BMP280;7420;53.574;10.040;2023-05-21T01:59:55;54225.19;;;-136.87
14666;BMP280;7420;53.574;10.040;2023-05-21T02:02:22;54227.25;;;-136.87
14666;BMP280;7420;53.574;10.040;2023-05-21T02:04:47;54227.25;;;-136.87
14666;BMP280;7420;53.574;10.040;2023-05-21T02:07:14;54227.25;;;-136.87
14666;BMP280;7420;53.574;10.040;2023-05-21T02:09:39;54227.25;;;-136.87
14666;BMP280;7420;53.574;10.040;2023-05-21T02:12:05;54227.25;;;-136.87
14666;BMP280;7420;53.574;10.040;2023-05-21T02:14:31;54229.28;;;-136.87
14666;BMP280;7420;53.574;10.040;2023-05-21T02:16:58;54231.31;;;-136.87
14666;BMP280;7420;53.574;10.040;2023-05-21T02:19:24;54227.25;;;-136.87
14666;BMP280;7420;53.574;10.040;2023-05-21T02:21:50;54229.28;;;-136.87
14666;BMP280;7420;53.574;10.040;2023-05-21T02:24:15;54229.28;;;-136.87
14666;BMP280;7420;53.574;10.040;2023-05-21T02:26:40;54229.28;;;-136.87
14666;BMP280;7420;53.574;10.040;2023-05-21T02:29:06;54227.25;;;-136.87
14666;BMP280;7420;53.574;10.040;2023-05-21T02:31:31;54227.25;;;-136.87
14666;BMP280;7420;53.574;10.040;2023-05-21T02:33:56;54227.25;;;-136.87
14666;BMP280;7420;53.574;10.040;2023-05-21T02:36:22;54229.28;;;-136.87
14666;BMP280;7420;53.574;10.040;2023-05-21T02:38:49;54229.28;;;-136.87
14666;BMP280;7420;53.574;10.040;2023-05-21T02:41:14;54227.25;;;-136.87
14666;BMP280;7420;53.574;10.040;2023-05-21T02:43:40;54229.28;;;-136.87
14666;BMP280;7420;53.574;10.040;2023-05-21T02:48:31;54229.28;;;-136.87
14666;BMP280;7420;53.574;10.040;2023-05-21T02:50:57;54229.28;;;-136.87
14666;BMP280;7420;53.574;10.040;2023-05-21T02:53:22;54225.19;;;-136.87
14666;BMP280;7420;53.574;10.040;2023-05-21T02:55:48;54229.28;;;-136.87
14666;BMP280;7420;53.574;10.040;2023-05-21T02:58:13;54227.25;;;-136.87
14666;BMP280;7420;53.574;10.040;2023-05-21T03:00:39;54231.31;;;-136.87
14666;BMP280;7420;53.574;10.040;2023-05-21T03:03:04;54229.28;;;-136.87
14666;BMP280;7420;53.574;10.040;2023-05-21T03:05:30;54229.28;;;-136.87
14666;BMP280;7420;53.574;10.040;2023-05-21T03:07:55;54229.28;;;-136.87
14666;BMP280;7420;53.574;10.040;2023-05-21T03:10:21;54227.25;;;-136.87
14666;BMP280;7420;53.574;10.040;2023-05-21T03:12:46;54225.19;;;-136.87
14666;BMP280;7420;53.574;10.040;2023-05-21T03:15:12;54229.28;;;-136.87
14666;BMP280;7420;53.574;10.040;2023-05-21T03:17:39;54229.28;;;-136.87
14666;BMP280;7420;53.574;10.040;2023-05-21T03:20:07;54229.28;;;-136.87
14666;BMP280;7420;53.574;10.040;2023-05-21T03:22:33;54229.28;;;-136.87
14666;BMP280;7420;53.574;10.040;2023-05-21T03:24:59;54229.28;;;-136.87
14666;BMP280;7420;53.574;10.040;2023-05-21T03:27:26;54225.19;;;-136.87
14666;BMP280;7420;53.574;10.040;2023-05-21T03:29:51;54229.28;;;-136.87
14666;BMP280;7420;53.574;10.040;2023-05-21T03:32:20;54229.28;;;-136.87
14666;BMP280;7420;53.574;10.040;2023-05-21T03:34:45;54229.28;;;-136.87
14666;BMP280;7420;53.574;10.040;2023-05-21T03:37:10;54229.28;;;-136.87
14666;BMP280;7420;53.574;10.040;2023-05-21T03:39:36;54225.19;;;-136.87
14666;BMP280;7420;53.574;10.040;2023-05-21T03:42:01;54225.19;;;-136.87
14666;BMP280;7420;53.574;10.040;2023-05-21T03:44:26;54225.19;;;-136.87
14666;BMP280;7420;53.574;10.040;2023-05-21T03:46:52;54229.28;;;-136.87
14666;BMP280;7420;53.574;10.040;2023-05-21T03:49:19;54231.31;;;-136.87
14666;BMP280;7420;53.574;10.040;2023-05-21T03:51:44;54229.28;;;-136.87
14666;BMP280;7420;53.574;10.040;2023-05-21T03:54:09;54229.28;;;-136.87
14666;BMP280;7420;53.574;10.040;2023-05-21T03:56:35;54229.28;;;-136.87
14666;BMP280;7420;53.574;10.040;2023-05-21T03:59:00;54225.19;;;-136.87
14666;BMP280;7420;53.574;10.040;2023-05-21T04:01:27;54229.28;;;-136.87
14666;BMP280;7420;53.574;10.040;2023-05-21T04:03:53;54229.28;;;-136.87
14666;BMP280;7420;53.574;10.040;2023-05-21T04:06:18;54227.25;;;-136.87
14666;BMP280;7420;53.574;10.040;2023-05-21T04:08:44;54229.28;;;-136.87
14666;BMP280;7420;53.574;10.040;2023-05-21T04:11:09;54231.31;;;-136.87
14666;BMP280;7420;53.574;10.040;2023-05-21T04:13:34;54225.19;;;-136.87
14666;BMP280;7420;53.574;10.040;2023-05-21T04:16:00;54225.19;;;-136.87
14666;BMP280;7420;53.574;10.040;2023-05-21T04:18:25;54225.19;;;-136.87
14666;BMP280;7420;53.574;10.040;2023-05-21T04:20:51;54229.28;;;-136.87
14666;BMP280;7420;53.574;10.040;2023-05-21T04:23:16;54227.25;;;-136.87
14666;BMP280;7420;53.574;10.040;2023-05-21T04:25:42;54229.28;;;-136.87
14666;BMP280;7420;53.574;10.040;2023-05-21T04:28:07;54225.19;;;-136.87
14666;BMP280;7420;53.574;10.040;2023-05-21T04:30:32;54229.28;;;-136.87
14666;BMP280;7420;53.574;10.040;2023-05-21T04:33:00;54229.28;;;-136.87
14666;BMP280;7420;53.574;10.040;2023-05-21T04:35:26;54229.28;;;-136.87
14666;BMP280;7420;53.574;10.040;2023-05-21T04:37:51;54227.25;;;-136.87
14666;BMP280;7420;53.574;10.040;2023-05-21T04:40:19;54229.28;;;-136.87
14666;BMP280;7420;53.574;10.040;2023-05-21T04:42:49;54225.19;;;-136.87
14666;BMP280;7420;53.574;10.040;2023-05-21T04:45:15;54227.25;;;-136.87
14666;BMP280;7420;53.574;10.040;2023-05-21T04:47:41;54225.19;;;-136.87
14666;BMP280;7420;53.574;10.040;2023-05-21T04:50:07;54225.19;;;-136.87
14666;BMP280;7420;53.574;10.040;2023-05-21T04:52:35;54225.19;;;-136.87
14666;BMP280;7420;53.574;10.040;2023-05-21T04:55:01;54227.25;;;-136.87
14666;BMP280;7420;53.574;10.040;2023-05-21T04:57:27;54225.19;;;-136.87
14666;BMP280;7420;53.574;10.040;2023-05-21T05:02:18;54227.25;;;-136.87
14666;BMP280;7420;53.574;10.040;2023-05-21T05:04:44;54227.25;;;-136.87
14666;BMP280;7420;53.574;10.040;2023-05-21T05:07:10;54227.25;;;-136.87
14666;BMP280;7420;53.574;10.040;2023-05-21T05:09:36;54229.28;;;-136.87
14666;BMP280;7420;53.574;10.040;2023-05-21T05:12:01;54229.28;;;-136.87
14666;BMP280;7420;53.574;10.040;2023-05-21T05:14:26;54225.19;;;-136.87
14666;BMP280;7420;53.574;10.040;2023-05-21T05:16:52;54231.31;;;-136.87
14666;BMP280;7420;53.574;10.040;2023-05-21T05:19:18;54223.16;;;-136.87
14666;BMP280;7420;53.574;10.040;2023-05-21T05:21:44;54229.28;;;-136.87
14666;BMP280;7420;53.574;10.040;2023-05-21T05:24:09;54227.25;;;-136.87
14666;BMP280;7420;53.574;10.040;2023-05-21T05:26:34;54227.25;;;-136.87
14666;BMP280;7420;53.574;10.040;2023-05-21T05:29:00;54223.16;;;-136.87
14666;BMP280;7420;53.574;10.040;2023-05-21T05:31:25;54227.25;;;-136.87
14666;BMP280;7420;53.574;10.040;2023-05-21T05:33:51;54229.28;;;-136.87
14666;BMP280;7420;53.574;10.040;2023-05-21T05:36:16;54225.19;;;-136.87
14666;BMP280;7420;53.574;10.040;2023-05-21T05:38:41;54227.25;;;-136.87
14666;BMP280;7420;53.574;10.040;2023-05-21T05:41:07;54225.19;;;-136.87
14666;BMP280;7420;53.574;10.040;2023-05-21T05:43:32;54229.28;;;-136.87
14666;BMP280;7420;53.574;10.040;2023-05-21T05:45:57;54225.19;;;-136.87
14666;BMP280;7420;53.574;10.040;2023-05-21T05:48:23;54225.19;;;-136.87
14666;BMP280;7420;53.574;10.040;2023-05-21T05:50:48;54225.19;;;-136.87
14666;BMP280;7420;53.574;10.040;2023-05-21T05:53:13;54225.19;;;-136.87
14666;BMP280;7420;53.574;10.040;2023-05-21T05:55:39;54227.25;;;-136.87
14666;BMP280;7420;53.574;10.040;2023-05-21T05:58:05;54225.19;;;-136.87
14666;BMP280;7420;53.574;10.040;2023-05-21T06:00:30;54225.19;;;-136.87
14666;BMP280;7420;53.574;10.040;2023-05-21T06:02:56;54229.28;;;-136.87
14666;BMP280;7420;53.574;10.040;2023-05-21T06:05:21;54227.25;;;-136.87
14666;BMP280;7420;53.574;10.040;2023-05-21T06:07:47;54225.19;;;-136.87
14666;BMP280;7420;53.574;10.040;2023-05-21T06:10:12;54225.19;;;-136.87
14666;BMP280;7420;53.574;10.040;2023-05-21T06:12:37;54229.28;;;-136.87
14666;BMP280;7420;53.574;10.040;2023-05-21T06:15:04;54225.19;;;-136.87
14666;BMP280;7420;53.574;10.040;2023-05-21T06:17:30;54225.19;;;-136.87
14666;BMP280;7420;53.574;10.040;2023-05-21T06:19:55;54227.25;;;-136.87
14666;BMP280;7420;53.574;10.040;2023-05-21T06:22:21;54225.19;;;-136.87
14666;BMP280;7420;53.574;10.040;2023-05-21T06:24:46;54227.25;;;-136.87
14666;BMP280;7420;53.574;10.040;2023-05-21T06:27:12;54229.28;;;-136.87
14666;BMP280;7420;53.574;10.040;2023-05-21T06:29:37;54225.19;;;-136.87
14666;BMP280;7420;53.574;10.040;2023-05-21T06:32:05;54225.19;;;-136.87
14666;BMP280;7420;53.574;10.040;2023-05-21T06:34:31;54223.16;;;-136.87
14666;BMP280;7420;53.574;10.040;2023-05-21T06:36:56;54223.16;;;-136.87
14666;BMP280;7420;53.574;10.040;2023-05-21T06:39:21;54229.28;;;-136.87
14666;BMP280;7420;53.574;10.040;2023-05-21T06:44:13;54223.16;;;-136.87
14666;BMP280;7420;53.574;10.040;2023-05-21T06:46:39;54225.19;;;-136.87
14666;BMP280;7420;53.574;10.040;2023-05-21T06:49:05;54227.25;;;-136.87
14666;BMP280;7420;53.574;10.040;2023-05-21T06:51:31;54225.19;;;-136.87
14666;BMP280;7420;53.574;10.040;2023-05-21T06:53:56;54225.19;;;-136.87
14666;BMP280;7420;53.574;10.040;2023-05-21T06:56:22;54227.25;;;-136.87
14666;BMP280;7420;53.574;10.040;2023-05-21T06:58:47;54225.19;;;-136.87
14666;BMP280;7420;53.574;10.040;2023-05-21T07:01:12;54225.19;;;-136.87
14666;BMP280;7420;53.574;10.040;2023-05-21T07:03:37;54225.19;;;-136.87
14666;BMP280;7420;53.574;10.040;2023-05-21T07:06:03;54223.16;;;-136.87
14666;BMP280;7420;53.574;10.040;2023-05-21T07:08:28;54223.16;;;-136.87
14666;BMP280;7420;53.574;10.040;2023-05-21T07:10:53;54225.19;;;-136.87
14666;BMP280;7420;53.574;10.040;2023-05-21T07:13:20;54225.19;;;-136.87
14666;BMP280;7420;53.574;10.040;2023-05-21T07:15:45;54221.13;;;-136.87
14666;BMP280;7420;53.574;10.040;2023-05-21T07:18:11;54227.25;;;-136.87
14666;BMP280;7420;53.574;10.040;2023-05-21T07:20:37;54221.13;;;-136.87
14666;BMP280;7420;53.574;10.040;2023-05-21T07:23:02;54225.19;;;-136.87
14666;BMP280;7420;53.574;10.040;2023-05-21T07:25:27;54221.13;;;-136.87
14666;BMP280;7420;53.574;10.040;2023-05-21T07:27:53;54225.19;;;-136.87
14666;BMP280;7420;53.574;10.040;2023-05-21T07:30:24;54225.19;;;-136.87
14666;BMP280;7420;53.574;10.040;2023-05-21T07:32:50;54225.19;;;-136.87
14666;BMP280;7420;53.574;10.040;2023-05-21T07:35:15;54225.19;;;-136.87
14666;BMP280;7420;53.574;10.040;2023-05-21T07:37:41;54225.19;;;-136.87
14666;BMP280;7420;53.574;10.040;2023-05-21T07:40:06;54225.19;;;-136.87
14666;BMP280;7420;53.574;10.040;2023-05-21T07:42:32;54225.19;;;-136.87
14666;BMP280;7420;53.574;10.040;2023-05-21T07:44:58;54225.19;;;-136.87
14666;BMP280;7420;53.574;10.040;2023-05-21T07:47:23;54223.16;;;-136.87
14666;BMP280;7420;53.574;10.040;2023-05-21T07:49:49;54223.16;;;-136.87
14666;BMP280;7420;53.574;10.040;2023-05-21T07:52:14;54225.19;;;-136.87
14666;BMP280;7420;53.574;10.040;2023-05-21T07:54:40;54221.13;;;-136.87
14666;BMP280;7420;53.574;10.040;2023-05-21T07:57:05;54225.19;;;-136.87
14666;BMP280;7420;53.574;10.040;2023-05-21T07:59:30;54225.19;;;-136.87
14666;BMP280;7420;53.574;10.040;2023-05-21T08:01:57;54225.19;;;-136.87
14666;BMP280;7420;53.574;10.040;2023-05-21T08:04:23;54227.25;;;-136.87
14666;BMP280;7420;53.574;10.040;2023-05-21T08:06:48;54225.19;;;-136.87
14666;BMP280;7420;53.574;10.040;2023-05-21T08:09:13;54225.19;;;-136.87
14666;BMP280;7420;53.574;10.040;2023-05-21T08:11:39;54223.16;;;-136.87
14666;BMP280;7420;53.574;10.040;2023-05-21T08:14:04;54223.16;;;-136.87
14666;BMP280;7420;53.574;10.040;2023-05-21T08:16:30;54223.16;;;-136.87
14666;BMP280;7420;53.574;10.040;2023-05-21T08:18:55;54225.19;;;-136.87
14666;BMP280;7420;53.574;10.040;2023-05-21T08:21:21;54225.19;;;-136.87
14666;BMP280;7420;53.574;10.040;2023-05-21T08:23:47;54221.13;;;-136.87
14666;BMP280;7420;53.574;10.040;2023-05-21T08:26:12;54223.16;;;-136.87
14666;BMP280;7420;53.574;10.040;2023-05-21T08:28:40;54225.19;;;-136.87
14666;BMP280;7420;53.574;10.040;2023-05-21T08:31:06;54223.16;;;-136.87
14666;BMP280;7420;53.574;10.040;2023-05-21T08:33:34;54223.16;;;-136.87
14666;BMP280;7420;53.574;10.040;2023-05-21T08:36:01;54225.19;;;-136.87
14666;BMP280;7420;53.574;10.040;2023-05-21T08:38:27;54221.13;;;-136.87
14666;BMP280;7420;53.574;10.040;2023-05-21T08:40:53;54221.13;;;-136.87
14666;BMP280;7420;53.574;10.040;2023-05-21T08:43:19;54225.19;;;-136.87
14666;BMP280;7420;53.574;10.040;2023-05-21T08:45:52;54223.16;;;-136.87
14666;BMP280;7420;53.574;10.040;2023-05-21T08:48:18;54225.19;;;-136.87
14666;BMP280;7420;53.574;10.040;2023-05-21T08:50:46;54223.16;;;-136.87
14666;BMP280;7420;53.574;10.040;2023-05-21T08:53:12;54225.19;;;-136.87
14666;BMP280;7420;53.574;10.040;2023-05-21T08:55:39;54225.19;;;-136.87
14666;BMP280;7420;53.574;10.040;2023-05-21T08:58:06;54225.19;;;-136.87
14666;BMP280;7420;53.574;10.040;2023-05-21T09:00:32;54227.25;;;-136.87
14666;BMP280;7420;53.574;10.040;2023-05-21T09:02:58;54225.19;;;-136.87
14666;BMP280;7420;53.574;10.040;2023-05-21T09:05:25;54225.19;;;-136.87
14666;BMP280;7420;53.574;10.040;2023-05-21T09:08:05;54227.25;;;-136.87
14666;BMP280;7420;53.574;10.040;2023-05-21T09:10:35;54223.16;;;-136.87
14666;BMP280;7420;53.574;10.040;2023-05-21T09:13:02;54227.25;;;-136.87
14666;BMP280;7420;53.574;10.040;2023-05-21T09:15:27;54225.19;;;-136.87
14666;BMP280;7420;53.574;10.040;2023-05-21T09:17:53;54225.19;;;-136.87
14666;BMP280;7420;53.574;10.040;2023-05-21T09:20:24;54225.19;;;-136.87
14666;BMP280;7420;53.574;10.040;2023-05-21T09:22:51;54225.19;;;-136.87
14666;BMP280;7420;53.574;10.040;2023-05-21T09:25:24;54225.19;;;-136.87
14666;BMP280;7420;53.574;10.040;2023-05-21T09:27:56;54225.19;;;-136.87
14666;BMP280;7420;53.574;10.040;2023-05-21T09:30:22;54225.19;;;-136.87
14666;BMP280;7420;53.574;10.040;2023-05-21T09:33:00;54225.19;;;-136.87
14666;BMP280;7420;53.574;10.040;2023-05-21T09:35:27;54225.19;;;-136.87
14666;BMP280;7420;53.574;10.040;2023-05-21T09:37:52;54225.19;;;-136.87
14666;BMP280;7420;53.574;10.040;2023-05-21T09:40:19;54225.19;;;-136.87
14666;BMP280;7420;53.574;10.040;2023-05-21T09:42:50;54227.25;;;-136.87
14666;BMP280;7420;53.574;10.040;2023-05-21T09:45:23;54227.25;;;-136.87
14666;BMP280;7420;53.574;10.040;2023-05-21T09:47:50;54229.28;;;-136.87
14666;BMP280;7420;53.574;10.040;2023-05-21T09:50:23;54229.28;;;-136.87
14666;BMP280;7420;53.574;10.040;2023-05-21T09:52:49;54233.38;;;-136.87
14666;BMP280;7420;53.574;10.040;2023-05-21T09:55:18;54233.38;;;-136.87
14666;BMP280;7420;53.574;10.040;2023-05-21T09:57:46;54237.44;;;-136.87
14666;BMP280;7420;53.574;10.040;2023-05-21T10:00:19;54233.38;;;-136.87
14666;BMP280;7420;53.574;10.040;2023-05-21T10:02:47;54237.44;;;-136.87
14666;BMP280;7420;53.574;10.040;2023-05-21T10:05:13;54239.50;;;-136.87
14666;BMP280;7420;53.574;10.040;2023-05-21T10:07:46;54243.59;;;-136.87
14666;BMP280;7420;53.574;10.040;2023-05-21T10:10:13;54241.53;;;-136.87
14666;BMP280;7420;53.574;10.040;2023-05-21T10:12:42;54239.50;;;-136.87
14666;BMP280;7420;53.574;10.040;2023-05-21T10:15:15;54241.53;;;-136.87
14666;BMP280;7420;53.574;10.040;2023-05-21T10:17:41;54245.63;;;-136.87
14666;BMP280;7420;53.574;10.040;2023-05-21T10:20:09;54241.53;;;-136.87
14666;BMP280;7420;53.574;10.040;2023-05-21T10:22:36;54237.44;;;-136.87
14666;BMP280;7420;53.574;10.040;2023-05-21T10:25:01;54245.63;;;-136.87
14666;BMP280;7420;53.574;10.040;2023-05-21T10:27:29;54243.59;;;-136.87
14666;BMP280;7420;53.574;10.040;2023-05-21T10:29:56;54243.59;;;-136.87
14666;BMP280;7420;53.574;10.040;2023-05-21T10:32:21;54241.53;;;-136.87
14666;BMP280;7420;53.574;10.040;2023-05-21T10:34:47;54241.53;;;-136.87
14666;BMP280;7420;53.574;10.040;2023-05-21T10:37:15;54243.59;;;-136.87
14666;BMP280;7420;53.574;10.040;2023-05-21T10:39:42;54241.53;;;-136.87
14666;BMP280;7420;53.574;10.040;2023-05-21T10:50:23;54245.63;;;-136.87
14666;BMP280;7420;53.574;10.040;2023-05-21T10:53:21;54237.44;;;-136.87
14666;BMP280;7420;53.574;10.040;2023-05-21T10:56:09;54235.41;;;-136.87
14666;BMP280;7420;53.574;10.040;2023-05-21T11:01:21;54233.38;;;-136.87
14666;BMP280;7420;53.574;10.040;2023-05-21T11:03:47;54233.38;;;-136.87
14666;BMP280;7420;53.574;10.040;2023-05-21T11:06:22;54235.41;;;-136.87
14666;BMP280;7420;53.574;10.040;2023-05-21T11:08:49;54241.53;;;-136.87
14666;BMP280;7420;53.574;10.040;2023-05-21T11:11:38;54233.38;;;-136.87
14666;BMP280;7420;53.574;10.040;2023-05-21T11:17:14;54229.28;;;-136.87
14666;BMP280;7420;53.574;10.040;2023-05-21T11:19:46;54233.38;;;-136.87
14666;BMP280;7420;53.574;10.040;2023-05-21T11:22:24;54223.16;;;-136.87
14666;BMP280;7420;53.574;10.040;2023-05-21T11:24:51;54229.28;;;-136.87
14666;BMP280;7420;53.574;10.040;2023-05-21T11:27:36;54229.28;;;-136.87
14666;BMP280;7420;53.574;10.040;2023-05-21T11:30:13;54229.28;;;-136.87
14666;BMP280;7420;53.574;10.040;2023-05-21T11:35:26;54223.16;;;-136.87
14666;BMP280;7420;53.574;10.040;2023-05-21T11:37:54;54227.25;;;-136.87
14666;BMP280;7420;53.574;10.040;2023-05-21T11:40:24;54223.16;;;-136.87
14666;BMP280;7420;53.574;10.040;2023-05-21T11:42:54;54225.19;;;-136.87
14666;BMP280;7420;53.574;10.040;2023-05-21T11:45:22;54225.19;;;-136.87
14666;BMP280;7420;53.574;10.040;2023-05-21T11:47:48;54225.19;;;-136.87
14666;BMP280;7420;53.574;10.040;2023-05-21T11:50:14;54219.06;;;-136.87
14666;BMP280;7420;53.574;10.040;2023-05-21T11:52:41;54221.13;;;-136.87
14666;BMP280;7420;53.574;10.040;2023-05-21T11:55:08;54225.19;;;-136.87
14666;BMP280;7420;53.574;10.040;2023-05-21T11:57:33;54221.13;;;-136.87
14666;BMP280;7420;53.574;10.040;2023-05-21T12:00:00;54219.06;;;-136.87
14666;BMP280;7420;53.574;10.040;2023-05-21T12:02:30;54221.13;;;-136.87
14666;BMP280;7420;53.574;10.040;2023-05-21T12:04:56;54214.97;;;-136.87
14666;BMP280;7420;53.574;10.040;2023-05-21T12:07:28;54219.06;;;-136.87
14666;BMP280;7420;53.574;10.040;2023-05-21T12:09:54;54219.06;;;-136.87
14666;BMP280;7420;53.574;10.040;2023-05-21T12:12:21;54217.03;;;-136.87
14666;BMP280;7420;53.574;10.040;2023-05-21T12:14:48;54212.94;;;-136.87
14666;BMP280;7420;53.574;10.040;2023-05-21T12:17:16;54214.97;;;-136.87
14666;BMP280;7420;53.574;10.040;2023-05-21T12:19:41;54217.03;;;-136.87
14666;BMP280;7420;53.574;10.040;2023-05-21T12:22:07;54210.91;;;-136.87
14666;BMP280;7420;53.574;10.040;2023-05-21T12:24:34;54210.91;;;-136.87
14666;BMP280;7420;53.574;10.040;2023-05-21T12:27:01;54212.94;;;-136.87
14666;BMP280;7420;53.574;10.040;2023-05-21T12:29:30;54210.91;;;-136.87
14666;BMP280;7420;53.574;10.040;2023-05-21T12:31:59;54212.94;;;-136.87
14666;BMP280;7420;53.574;10.040;2023-05-21T12:34:49;54212.94;;;-136.87
14666;BMP280;7420;53.574;10.040;2023-05-21T12:37:22;54217.03;;;-136.87
14666;BMP280;7420;53.574;10.040;2023-05-21T12:39:49;54221.13;;;-136.87
14666;BMP280;7420;53.574;10.040;2023-05-21T12:42:15;54212.94;;;-136.87
14666;BMP280;7420;53.574;10.040;2023-05-21T12:44:45;54214.97;;;-136.87
14666;BMP280;7420;53.574;10.040;2023-05-21T12:47:12;54217.03;;;-136.87
14666;BMP280;7420;53.574;10.040;2023-05-21T12:49:45;54210.91;;;-136.87
14666;BMP280;7420;53.574;10.040;2023-05-21T12:52:13;54212.94;;;-136.87
14666;BMP280;7420;53.574;10.040;2023-05-21T12:54:40;54214.97;;;-136.87
14666;BMP280;7420;53.574;10.040;2023-05-21T12:57:07;54212.94;;;-136.87
14666;BMP280;7420;53.574;10.040;2023-05-21T12:59:52;54210.91;;;-136.87
14666;BMP280;7420;53.574;10.040;2023-05-21T13:02:24;54219.06;;;-136.87
14666;BMP280;7420;53.574;10.040;2023-05-21T13:05:10;54219.06;;;-136.87
14666;BMP280;7420;53.574;10.040;2023-05-21T13:07:38;54214.97;;;-136.87
14666;BMP280;7420;53.574;10.040;2023-05-21T13:10:05;54214.97;;;-136.87
14666;BMP280;7420;53.574;10.040;2023-05-21T13:12:31;54217.03;;;-136.87
14666;BMP280;7420;53.574;10.040;2023-05-21T13:14:59;54217.03;;;-136.87
14666;BMP280;7420;53.574;10.040;2023-05-21T13:17:26;54214.97;;;-136.87
14666;BMP280;7420;53.574;10.040;2023-05-21T13:22:33;54219.06;;;-136.87
14666;BMP280;7420;53.574;10.040;2023-05-21T13:25:03;54217.03;;;-136.87
14666;BMP280;7420;53.574;10.040;2023-05-21T13:27:28;54221.13;;;-136.87
14666;BMP280;7420;53.574;10.040;2023-05-21T13:29:53;54221.13;;;-136.87
14666;BMP280;7420;53.574;10.040;2023-05-21T13:32:19;54223.16;;;-136.87
14666;BMP280;7420;53.574;10.040;2023-05-21T13:34:44;54221.13;;;-136.87
14666;BMP280;7420;53.574;10.040;2023-05-21T13:37:10;54214.97;;;-136.87
14666;BMP280;7420;53.574;10.040;2023-05-21T13:39:36;54223.16;;;-136.87
14666;BMP280;7420;53.574;10.040;2023-05-21T13:42:01;54214.97;;;-136.87
14666;BMP280;7420;53.574;10.040;2023-05-21T13:44:27;54212.94;;;-136.87
14666;BMP280;7420;53.574;10.040;2023-05-21T13:46:52;54219.06;;;-136.87
14666;BMP280;7420;53.574;10.040;2023-05-21T13:49:17;54217.03;;;-136.87
14666;BMP280;7420;53.574;10.040;2023-05-21T13:51:43;54221.13;;;-136.87
14666;BMP280;7420;53.574;10.040;2023-05-21T13:54:08;54223.16;;;-136.87
14666;BMP280;7420;53.574;10.040;2023-05-21T13:56:33;54217.03;;;-136.87
14666;BMP280;7420;53.574;10.040;2023-05-21T13:58:59;54221.13;;;-136.87
14666;BMP280;7420;53.574;10.040;2023-05-21T14:01:25;54223.16;;;-136.87
14666;BMP280;7420;53.574;10.040;2023-05-21T14:03:50;54217.03;;;-136.87
14666;BMP280;7420;53.574;10.040;2023-05-21T14:06:16;54212.94;;;-136.87
14666;BMP280;7420;53.574;10.040;2023-05-21T14:08:41;54214.97;;;-136.87
14666;BMP280;7420;53.574;10.040;2023-05-21T14:11:06;54212.94;;;-136.87